sensor_id;sensor_type;location;lat;lon;timestamp;P1;durP1;ratioP1;P2;durP2;ratioP2
11018;SDS011;5563;52.296;6.806;2023-01-10T00:01:17;15.57;;;4.97;;
11018;SDS011;5563;52.296;6.806;2023-01-10T00:03:44;13.53;;;5.13;;
11018;SDS011;5563;52.296;6.806;2023-01-10T00:06:11;12.50;;;4.73;;
11018;SDS011;5563;52.296;6.806;2023-01-10T00:08:49;15.40;;;4.83;;
11018;SDS011;5563;52.296;6.806;2023-01-10T00:11:25;13.87;;;4.57;;
11018;SDS011;5563;52.296;6.806;2023-01-10T00:14:30;13.40;;;4.47;;
11018;SDS011;5563;52.296;6.806;2023-01-10T00:17:06;9.73;;;4.03;;
11018;SDS011;5563;52.296;6.806;2023-01-10T00:19:33;12.03;;;4.33;;
11018;SDS011;5563;52.296;6.806;2023-01-10T00:22:00;11.97;;;4.03;;
11018;SDS011;5563;52.296;6.806;2023-01-10T00:24:37;14.00;;;5.07;;
11018;SDS011;5563;52.296;6.806;2023-01-10T00:27:10;9.80;;;4.10;;
11018;SDS011;5563;52.296;6.806;2023-01-10T00:29:44;13.80;;;4.57;;
11018;SDS011;5563;52.296;6.806;2023-01-10T00:32:12;14.63;;;4.23;;
11018;SDS011;5563;52.296;6.806;2023-01-10T00:34:45;14.30;;;5.10;;
11018;SDS011;5563;52.296;6.806;2023-01-10T00:37:18;12.63;;;4.50;;
11018;SDS011;5563;52.296;6.806;2023-01-10T00:39:51;11.87;;;4.60;;
11018;SDS011;5563;52.296;6.806;2023-01-10T00:42:24;10.10;;;3.60;;
11018;SDS011;5563;52.296;6.806;2023-01-10T00:45:16;8.50;;;4.00;;
11018;SDS011;5563;52.296;6.806;2023-01-10T00:47:45;13.23;;;4.70;;
11018;SDS011;5563;52.296;6.806;2023-01-10T00:50:18;11.33;;;4.57;;
11018;SDS011;5563;52.296;6.806;2023-01-10T00:52:45;10.53;;;4.03;;
11018;SDS011;5563;52.296;6.806;2023-01-10T00:55:18;9.77;;;4.00;;
11018;SDS011;5563;52.296;6.806;2023-01-10T00:57:45;11.27;;;3.60;;
11018;SDS011;5563;52.296;6.806;2023-01-10T01:00:18;10.40;;;3.60;;
11018;SDS011;5563;52.296;6.806;2023-01-10T01:02:51;10.57;;;4.17;;
11018;SDS011;5563;52.296;6.806;2023-01-10T01:05:18;8.93;;;3.70;;
11018;SDS011;5563;52.296;6.806;2023-01-10T01:07:51;14.33;;;4.00;;
11018;SDS011;5563;52.296;6.806;2023-01-10T01:10:18;9.20;;;3.97;;
11018;SDS011;5563;52.296;6.806;2023-01-10T01:13:17;10.83;;;3.80;;
11018;SDS011;5563;52.296;6.806;2023-01-10T01:15:46;13.57;;;4.30;;
11018;SDS011;5563;52.296;6.806;2023-01-10T01:18:23;14.53;;;4.50;;
11018;SDS011;5563;52.296;6.806;2023-01-10T01:20:51;9.57;;;3.50;;
11018;SDS011;5563;52.296;6.806;2023-01-10T01:23:34;18.27;;;4.30;;
11018;SDS011;5563;52.296;6.806;2023-01-10T01:26:01;14.47;;;4.00;;
11018;SDS011;5563;52.296;6.806;2023-01-10T01:28:36;10.27;;;3.57;;
11018;SDS011;5563;52.296;6.806;2023-01-10T01:31:07;9.20;;;3.37;;
11018;SDS011;5563;52.296;6.806;2023-01-10T01:33:45;9.23;;;3.60;;
11018;SDS011;5563;52.296;6.806;2023-01-10T01:36:11;16.33;;;5.00;;
11018;SDS011;5563;52.296;6.806;2023-01-10T01:38:45;11.00;;;3.57;;
11018;SDS011;5563;52.296;6.806;2023-01-10T01:41:12;11.47;;;4.13;;
11018;SDS011;5563;52.296;6.806;2023-01-10T01:44:12;11.67;;;3.90;;
11018;SDS011;5563;52.296;6.806;2023-01-10T01:47:01;12.53;;;3.93;;
11018;SDS011;5563;52.296;6.806;2023-01-10T01:49:59;13.10;;;3.63;;
11018;SDS011;5563;52.296;6.806;2023-01-10T01:52:33;8.50;;;3.40;;
11018;SDS011;5563;52.296;6.806;2023-01-10T01:55:02;11.10;;;3.33;;
11018;SDS011;5563;52.296;6.806;2023-01-10T01:57:37;13.43;;;3.40;;
11018;SDS011;5563;52.296;6.806;2023-01-10T02:00:08;9.77;;;3.57;;
11018;SDS011;5563;52.296;6.806;2023-01-10T02:02:48;10.87;;;3.83;;
11018;SDS011;5563;52.296;6.806;2023-01-10T02:05:28;10.83;;;3.70;;
11018;SDS011;5563;52.296;6.806;2023-01-10T02:08:05;12.73;;;4.00;;
11018;SDS011;5563;52.296;6.806;2023-01-10T02:13:29;13.47;;;3.63;;
11018;SDS011;5563;52.296;6.806;2023-01-10T02:16:11;9.30;;;3.50;;
11018;SDS011;5563;52.296;6.806;2023-01-10T02:18:51;7.63;;;3.33;;
11018;SDS011;5563;52.296;6.806;2023-01-10T02:21:29;9.23;;;4.03;;
11018;SDS011;5563;52.296;6.806;2023-01-10T02:27:17;14.80;;;3.97;;
11018;SDS011;5563;52.296;6.806;2023-01-10T02:33:15;10.67;;;3.27;;
11018;SDS011;5563;52.296;6.806;2023-01-10T02:38:57;12.33;;;3.70;;
11018;SDS011;5563;52.296;6.806;2023-01-10T02:41:46;11.13;;;3.50;;
11018;SDS011;5563;52.296;6.806;2023-01-10T02:44:33;14.03;;;4.90;;
11018;SDS011;5563;52.296;6.806;2023-01-10T02:47:01;11.53;;;3.23;;
11018;SDS011;5563;52.296;6.806;2023-01-10T02:49:42;8.57;;;3.43;;
11018;SDS011;5563;52.296;6.806;2023-01-10T02:52:16;12.00;;;4.00;;
11018;SDS011;5563;52.296;6.806;2023-01-10T02:54:54;9.80;;;3.83;;
11018;SDS011;5563;52.296;6.806;2023-01-10T02:57:44;9.93;;;3.47;;
11018;SDS011;5563;52.296;6.806;2023-01-10T03:03:24;10.90;;;3.67;;
11018;SDS011;5563;52.296;6.806;2023-01-10T03:08:55;11.87;;;3.60;;
11018;SDS011;5563;52.296;6.806;2023-01-10T03:11:31;9.90;;;3.70;;
11018;SDS011;5563;52.296;6.806;2023-01-10T03:14:24;8.83;;;3.57;;
11018;SDS011;5563;52.296;6.806;2023-01-10T03:17:05;7.63;;;3.63;;
11018;SDS011;5563;52.296;6.806;2023-01-10T03:19:43;11.13;;;3.77;;
11018;SDS011;5563;52.296;6.806;2023-01-10T03:22:15;10.57;;;3.30;;
11018;SDS011;5563;52.296;6.806;2023-01-10T03:24:50;9.63;;;4.00;;
11018;SDS011;5563;52.296;6.806;2023-01-10T03:32:45;13.37;;;3.70;;
11018;SDS011;5563;52.296;6.806;2023-01-10T03:35:18;11.17;;;3.47;;
11018;SDS011;5563;52.296;6.806;2023-01-10T03:37:52;10.17;;;3.40;;
11018;SDS011;5563;52.296;6.806;2023-01-10T03:40:52;9.87;;;3.97;;
11018;SDS011;5563;52.296;6.806;2023-01-10T03:46:35;10.67;;;3.37;;
11018;SDS011;5563;52.296;6.806;2023-01-10T03:49:09;8.77;;;2.87;;
11018;SDS011;5563;52.296;6.806;2023-01-10T03:51:45;12.07;;;3.03;;
11018;SDS011;5563;52.296;6.806;2023-01-10T03:54:20;8.20;;;2.87;;
11018;SDS011;5563;52.296;6.806;2023-01-10T03:56:48;11.63;;;3.00;;
11018;SDS011;5563;52.296;6.806;2023-01-10T03:59:24;10.03;;;3.07;;
11018;SDS011;5563;52.296;6.806;2023-01-10T04:01:52;9.63;;;2.70;;
11018;SDS011;5563;52.296;6.806;2023-01-10T04:04:28;13.20;;;3.43;;
11018;SDS011;5563;52.296;6.806;2023-01-10T04:07:01;12.10;;;3.20;;
11018;SDS011;5563;52.296;6.806;2023-01-10T04:09:38;11.53;;;3.07;;
11018;SDS011;5563;52.296;6.806;2023-01-10T04:12:05;7.87;;;2.67;;
11018;SDS011;5563;52.296;6.806;2023-01-10T04:14:38;11.37;;;3.10;;
11018;SDS011;5563;52.296;6.806;2023-01-10T04:17:18;10.77;;;2.73;;
11018;SDS011;5563;52.296;6.806;2023-01-10T04:19:52;8.77;;;2.73;;
11018;SDS011;5563;52.296;6.806;2023-01-10T04:22:26;12.77;;;3.00;;
11018;SDS011;5563;52.296;6.806;2023-01-10T04:24:59;8.87;;;2.70;;
11018;SDS011;5563;52.296;6.806;2023-01-10T04:27:26;9.20;;;2.77;;
11018;SDS011;5563;52.296;6.806;2023-01-10T04:29:59;10.87;;;2.90;;
11018;SDS011;5563;52.296;6.806;2023-01-10T04:32:32;10.60;;;3.20;;
11018;SDS011;5563;52.296;6.806;2023-01-10T04:35:05;7.53;;;2.87;;
11018;SDS011;5563;52.296;6.806;2023-01-10T04:37:39;9.27;;;3.07;;
11018;SDS011;5563;52.296;6.806;2023-01-10T04:40:06;8.37;;;2.97;;
11018;SDS011;5563;52.296;6.806;2023-01-10T04:42:40;8.43;;;2.53;;
11018;SDS011;5563;52.296;6.806;2023-01-10T04:45:13;10.57;;;2.77;;
11018;SDS011;5563;52.296;6.806;2023-01-10T04:47:50;12.50;;;3.30;;
11018;SDS011;5563;52.296;6.806;2023-01-10T04:50:17;12.27;;;3.30;;
11018;SDS011;5563;52.296;6.806;2023-01-10T04:52:50;13.47;;;3.07;;
11018;SDS011;5563;52.296;6.806;2023-01-10T04:55:18;11.43;;;3.27;;
11018;SDS011;5563;52.296;6.806;2023-01-10T04:57:51;14.23;;;3.17;;
11018;SDS011;5563;52.296;6.806;2023-01-10T05:00:18;8.23;;;3.10;;
11018;SDS011;5563;52.296;6.806;2023-01-10T05:02:57;11.00;;;3.30;;
11018;SDS011;5563;52.296;6.806;2023-01-10T05:05:28;13.47;;;3.30;;
11018;SDS011;5563;52.296;6.806;2023-01-10T05:08:02;14.30;;;3.47;;
11018;SDS011;5563;52.296;6.806;2023-01-10T05:10:36;15.10;;;3.33;;
11018;SDS011;5563;52.296;6.806;2023-01-10T05:13:10;13.07;;;3.83;;
11018;SDS011;5563;52.296;6.806;2023-01-10T05:15:44;10.03;;;3.93;;
11018;SDS011;5563;52.296;6.806;2023-01-10T05:18:20;12.50;;;4.13;;
11018;SDS011;5563;52.296;6.806;2023-01-10T05:21:00;10.50;;;3.80;;
11018;SDS011;5563;52.296;6.806;2023-01-10T05:23:42;13.67;;;4.50;;
11018;SDS011;5563;52.296;6.806;2023-01-10T05:26:16;16.53;;;4.00;;
11018;SDS011;5563;52.296;6.806;2023-01-10T05:29:00;15.93;;;4.30;;
11018;SDS011;5563;52.296;6.806;2023-01-10T05:31:30;12.10;;;4.03;;
11018;SDS011;5563;52.296;6.806;2023-01-10T05:34:12;13.07;;;4.37;;
11018;SDS011;5563;52.296;6.806;2023-01-10T05:36:45;13.77;;;4.63;;
11018;SDS011;5563;52.296;6.806;2023-01-10T05:39:12;13.63;;;4.50;;
11018;SDS011;5563;52.296;6.806;2023-01-10T05:41:45;12.93;;;4.63;;
11018;SDS011;5563;52.296;6.806;2023-01-10T05:44:19;11.23;;;5.20;;
11018;SDS011;5563;52.296;6.806;2023-01-10T05:46:52;14.60;;;4.60;;
11018;SDS011;5563;52.296;6.806;2023-01-10T05:49:22;15.93;;;5.30;;
11018;SDS011;5563;52.296;6.806;2023-01-10T05:51:55;16.83;;;5.53;;
11018;SDS011;5563;52.296;6.806;2023-01-10T05:54:22;8.97;;;4.80;;
11018;SDS011;5563;52.296;6.806;2023-01-10T05:56:55;11.80;;;6.27;;
11018;SDS011;5563;52.296;6.806;2023-01-10T05:59:30;12.07;;;5.37;;
11018;SDS011;5563;52.296;6.806;2023-01-10T06:02:03;13.87;;;5.80;;
11018;SDS011;5563;52.296;6.806;2023-01-10T06:04:39;18.77;;;6.70;;
11018;SDS011;5563;52.296;6.806;2023-01-10T06:07:06;15.07;;;6.70;;
11018;SDS011;5563;52.296;6.806;2023-01-10T06:09:39;16.40;;;7.37;;
11018;SDS011;5563;52.296;6.806;2023-01-10T06:12:06;18.37;;;7.20;;
11018;SDS011;5563;52.296;6.806;2023-01-10T06:14:46;14.63;;;6.33;;
11018;SDS011;5563;52.296;6.806;2023-01-10T06:17:12;14.93;;;7.47;;
11018;SDS011;5563;52.296;6.806;2023-01-10T06:19:49;17.80;;;6.77;;
11018;SDS011;5563;52.296;6.806;2023-01-10T06:22:17;14.80;;;6.33;;
11018;SDS011;5563;52.296;6.806;2023-01-10T06:24:50;12.40;;;6.20;;
11018;SDS011;5563;52.296;6.806;2023-01-10T06:27:24;16.97;;;6.90;;
11018;SDS011;5563;52.296;6.806;2023-01-10T06:29:50;15.50;;;7.23;;
11018;SDS011;5563;52.296;6.806;2023-01-10T06:32:24;11.83;;;6.67;;
11018;SDS011;5563;52.296;6.806;2023-01-10T06:34:51;16.27;;;6.37;;
11018;SDS011;5563;52.296;6.806;2023-01-10T06:37:25;20.33;;;7.20;;
11018;SDS011;5563;52.296;6.806;2023-01-10T06:39:52;15.30;;;7.30;;
11018;SDS011;5563;52.296;6.806;2023-01-10T06:42:25;20.17;;;7.73;;
11018;SDS011;5563;52.296;6.806;2023-01-10T06:44:52;18.80;;;7.30;;
11018;SDS011;5563;52.296;6.806;2023-01-10T06:47:25;16.07;;;6.87;;
11018;SDS011;5563;52.296;6.806;2023-01-10T06:49:58;15.57;;;6.60;;
11018;SDS011;5563;52.296;6.806;2023-01-10T06:52:31;14.27;;;6.70;;
11018;SDS011;5563;52.296;6.806;2023-01-10T06:55:05;16.07;;;7.33;;
11018;SDS011;5563;52.296;6.806;2023-01-10T06:57:39;17.47;;;7.63;;
11018;SDS011;5563;52.296;6.806;2023-01-10T07:00:12;13.23;;;7.47;;
11018;SDS011;5563;52.296;6.806;2023-01-10T07:02:39;18.77;;;7.80;;
11018;SDS011;5563;52.296;6.806;2023-01-10T07:05:13;15.07;;;6.80;;
11018;SDS011;5563;52.296;6.806;2023-01-10T07:07:40;16.53;;;7.50;;
11018;SDS011;5563;52.296;6.806;2023-01-10T07:10:16;16.10;;;7.90;;
11018;SDS011;5563;52.296;6.806;2023-01-10T07:12:43;16.83;;;7.37;;
11018;SDS011;5563;52.296;6.806;2023-01-10T07:15:23;16.50;;;7.73;;
11018;SDS011;5563;52.296;6.806;2023-01-10T07:17:50;15.77;;;6.80;;
11018;SDS011;5563;52.296;6.806;2023-01-10T07:20:23;13.57;;;6.73;;
11018;SDS011;5563;52.296;6.806;2023-01-10T07:22:54;18.97;;;7.63;;
11018;SDS011;5563;52.296;6.806;2023-01-10T07:25:29;16.67;;;7.20;;
11018;SDS011;5563;52.296;6.806;2023-01-10T07:28:03;18.93;;;7.03;;
11018;SDS011;5563;52.296;6.806;2023-01-10T07:30:37;14.27;;;6.77;;
11018;SDS011;5563;52.296;6.806;2023-01-10T07:33:04;14.97;;;6.80;;
11018;SDS011;5563;52.296;6.806;2023-01-10T07:35:38;14.33;;;6.53;;
11018;SDS011;5563;52.296;6.806;2023-01-10T07:38:11;14.40;;;6.60;;
11018;SDS011;5563;52.296;6.806;2023-01-10T07:40:45;17.50;;;7.13;;
11018;SDS011;5563;52.296;6.806;2023-01-10T07:43:18;14.87;;;6.77;;
11018;SDS011;5563;52.296;6.806;2023-01-10T07:45:45;17.60;;;7.30;;
11018;SDS011;5563;52.296;6.806;2023-01-10T07:48:12;18.50;;;6.50;;
11018;SDS011;5563;52.296;6.806;2023-01-10T07:50:45;19.43;;;6.50;;
11018;SDS011;5563;52.296;6.806;2023-01-10T07:53:22;14.87;;;6.80;;
11018;SDS011;5563;52.296;6.806;2023-01-10T07:55:49;19.53;;;7.23;;
11018;SDS011;5563;52.296;6.806;2023-01-10T07:58:22;20.97;;;6.30;;
11018;SDS011;5563;52.296;6.806;2023-01-10T08:00:56;16.40;;;6.37;;
11018;SDS011;5563;52.296;6.806;2023-01-10T08:03:26;15.47;;;6.80;;
11018;SDS011;5563;52.296;6.806;2023-01-10T08:06:03;20.93;;;6.87;;
11018;SDS011;5563;52.296;6.806;2023-01-10T08:08:42;20.10;;;6.83;;
11018;SDS011;5563;52.296;6.806;2023-01-10T08:11:20;16.80;;;6.17;;
11018;SDS011;5563;52.296;6.806;2023-01-10T08:14:03;18.33;;;6.27;;
11018;SDS011;5563;52.296;6.806;2023-01-10T08:16:36;19.27;;;6.10;;
11018;SDS011;5563;52.296;6.806;2023-01-10T08:19:11;16.70;;;5.87;;
11018;SDS011;5563;52.296;6.806;2023-01-10T08:21:48;23.20;;;6.67;;
11018;SDS011;5563;52.296;6.806;2023-01-10T08:24:15;17.53;;;6.60;;
11018;SDS011;5563;52.296;6.806;2023-01-10T08:26:48;18.90;;;6.73;;
11018;SDS011;5563;52.296;6.806;2023-01-10T08:29:15;18.53;;;6.13;;
11018;SDS011;5563;52.296;6.806;2023-01-10T08:31:49;21.47;;;6.07;;
11018;SDS011;5563;52.296;6.806;2023-01-10T08:34:19;18.80;;;6.00;;
11018;SDS011;5563;52.296;6.806;2023-01-10T08:37:11;15.47;;;6.50;;
11018;SDS011;5563;52.296;6.806;2023-01-10T08:39:48;22.20;;;5.83;;
11018;SDS011;5563;52.296;6.806;2023-01-10T08:42:21;22.50;;;7.37;;
11018;SDS011;5563;52.296;6.806;2023-01-10T08:44:48;14.83;;;5.57;;
11018;SDS011;5563;52.296;6.806;2023-01-10T08:47:22;15.30;;;5.73;;
11018;SDS011;5563;52.296;6.806;2023-01-10T08:49:49;16.03;;;6.13;;
11018;SDS011;5563;52.296;6.806;2023-01-10T08:52:22;20.70;;;7.00;;
11018;SDS011;5563;52.296;6.806;2023-01-10T08:54:49;17.60;;;6.67;;
11018;SDS011;5563;52.296;6.806;2023-01-10T08:57:22;17.30;;;6.00;;
11018;SDS011;5563;52.296;6.806;2023-01-10T08:59:59;16.83;;;5.93;;
11018;SDS011;5563;52.296;6.806;2023-01-10T09:02:32;16.10;;;5.73;;
11018;SDS011;5563;52.296;6.806;2023-01-10T09:05:06;11.50;;;4.93;;
11018;SDS011;5563;52.296;6.806;2023-01-10T09:07:52;19.37;;;6.27;;
11018;SDS011;5563;52.296;6.806;2023-01-10T09:10:29;17.83;;;5.50;;
11018;SDS011;5563;52.296;6.806;2023-01-10T09:13:09;19.77;;;5.70;;
11018;SDS011;5563;52.296;6.806;2023-01-10T09:15:42;16.33;;;5.47;;
11018;SDS011;5563;52.296;6.806;2023-01-10T09:18:13;22.53;;;5.87;;
11018;SDS011;5563;52.296;6.806;2023-01-10T09:20:46;14.53;;;5.43;;
11018;SDS011;5563;52.296;6.806;2023-01-10T09:23:20;17.30;;;4.97;;
11018;SDS011;5563;52.296;6.806;2023-01-10T09:25:54;15.37;;;4.63;;
11018;SDS011;5563;52.296;6.806;2023-01-10T09:28:23;20.97;;;5.40;;
11018;SDS011;5563;52.296;6.806;2023-01-10T09:30:56;14.87;;;5.17;;
11018;SDS011;5563;52.296;6.806;2023-01-10T09:33:27;14.23;;;4.30;;
11018;SDS011;5563;52.296;6.806;2023-01-10T09:36:12;15.80;;;4.53;;
11018;SDS011;5563;52.296;6.806;2023-01-10T09:38:41;14.90;;;4.57;;
11018;SDS011;5563;52.296;6.806;2023-01-10T09:41:18;20.20;;;5.00;;
11018;SDS011;5563;52.296;6.806;2023-01-10T09:46:59;18.83;;;4.90;;
11018;SDS011;5563;52.296;6.806;2023-01-10T09:50:10;19.13;;;4.57;;
11018;SDS011;5563;52.296;6.806;2023-01-10T09:52:57;17.63;;;6.17;;
11018;SDS011;5563;52.296;6.806;2023-01-10T09:55:32;15.77;;;4.73;;
11018;SDS011;5563;52.296;6.806;2023-01-10T09:58:12;14.57;;;4.30;;
11018;SDS011;5563;52.296;6.806;2023-01-10T10:00:53;19.83;;;4.77;;
11018;SDS011;5563;52.296;6.806;2023-01-10T10:03:37;15.47;;;4.67;;
11018;SDS011;5563;52.296;6.806;2023-01-10T10:06:12;16.77;;;4.77;;
11018;SDS011;5563;52.296;6.806;2023-01-10T10:08:49;17.20;;;4.83;;
11018;SDS011;5563;52.296;6.806;2023-01-10T10:17:21;18.03;;;4.20;;
11018;SDS011;5563;52.296;6.806;2023-01-10T10:20:18;14.13;;;4.60;;
11018;SDS011;5563;52.296;6.806;2023-01-10T10:32:34;10.20;;;4.33;;
11018;SDS011;5563;52.296;6.806;2023-01-10T10:38:30;17.70;;;4.40;;
11018;SDS011;5563;52.296;6.806;2023-01-10T10:41:03;14.20;;;4.30;;
11018;SDS011;5563;52.296;6.806;2023-01-10T10:43:50;12.00;;;4.17;;
11018;SDS011;5563;52.296;6.806;2023-01-10T10:46:26;13.67;;;3.80;;
11018;SDS011;5563;52.296;6.806;2023-01-10T10:49:05;13.77;;;5.50;;
11018;SDS011;5563;52.296;6.806;2023-01-10T10:51:59;16.07;;;4.00;;
11018;SDS011;5563;52.296;6.806;2023-01-10T10:54:36;18.37;;;4.53;;
11018;SDS011;5563;52.296;6.806;2023-01-10T10:57:08;15.40;;;4.47;;
11018;SDS011;5563;52.296;6.806;2023-01-10T10:59:43;12.50;;;4.40;;
11018;SDS011;5563;52.296;6.806;2023-01-10T11:02:20;15.93;;;3.93;;
11018;SDS011;5563;52.296;6.806;2023-01-10T11:05:01;20.83;;;4.60;;
11018;SDS011;5563;52.296;6.806;2023-01-10T11:07:31;16.73;;;5.63;;
11018;SDS011;5563;52.296;6.806;2023-01-10T11:10:30;19.97;;;4.47;;
11018;SDS011;5563;52.296;6.806;2023-01-10T11:13:03;14.50;;;4.30;;
11018;SDS011;5563;52.296;6.806;2023-01-10T11:15:47;11.27;;;3.83;;
11018;SDS011;5563;52.296;6.806;2023-01-10T11:18:29;15.33;;;4.23;;
11018;SDS011;5563;52.296;6.806;2023-01-10T11:23:53;14.50;;;4.43;;
11018;SDS011;5563;52.296;6.806;2023-01-10T11:26:30;17.40;;;4.63;;
11018;SDS011;5563;52.296;6.806;2023-01-10T11:29:07;14.60;;;6.27;;
11018;SDS011;5563;52.296;6.806;2023-01-10T11:32:11;14.33;;;3.93;;
11018;SDS011;5563;52.296;6.806;2023-01-10T11:34:54;17.93;;;4.57;;
11018;SDS011;5563;52.296;6.806;2023-01-10T11:37:33;16.60;;;5.10;;
11018;SDS011;5563;52.296;6.806;2023-01-10T11:40:15;14.90;;;4.27;;
11018;SDS011;5563;52.296;6.806;2023-01-10T11:43:00;17.50;;;5.07;;
11018;SDS011;5563;52.296;6.806;2023-01-10T11:45:56;16.23;;;3.97;;
11018;SDS011;5563;52.296;6.806;2023-01-10T11:49:20;16.63;;;4.67;;
11018;SDS011;5563;52.296;6.806;2023-01-10T11:51:43;18.30;;;4.40;;
11018;SDS011;5563;52.296;6.806;2023-01-10T11:54:19;17.57;;;4.57;;
11018;SDS011;5563;52.296;6.806;2023-01-10T11:57:00;20.93;;;4.53;;
11018;SDS011;5563;52.296;6.806;2023-01-10T11:59:53;13.13;;;3.53;;
11018;SDS011;5563;52.296;6.806;2023-01-10T12:02:31;15.90;;;3.90;;
11018;SDS011;5563;52.296;6.806;2023-01-10T12:05:19;18.87;;;4.43;;
11018;SDS011;5563;52.296;6.806;2023-01-10T12:08:11;15.63;;;4.40;;
11018;SDS011;5563;52.296;6.806;2023-01-10T12:14:09;17.17;;;3.93;;
11018;SDS011;5563;52.296;6.806;2023-01-10T12:16:58;10.03;;;3.47;;
11018;SDS011;5563;52.296;6.806;2023-01-10T12:19:34;19.47;;;4.60;;
11018;SDS011;5563;52.296;6.806;2023-01-10T12:22:01;18.33;;;5.20;;
11018;SDS011;5563;52.296;6.806;2023-01-10T12:24:38;14.63;;;3.30;;
11018;SDS011;5563;52.296;6.806;2023-01-10T12:27:10;16.53;;;5.33;;
11018;SDS011;5563;52.296;6.806;2023-01-10T12:30:00;20.97;;;4.87;;
11018;SDS011;5563;52.296;6.806;2023-01-10T12:32:43;15.57;;;4.17;;
11018;SDS011;5563;52.296;6.806;2023-01-10T12:35:25;15.00;;;4.50;;
11018;SDS011;5563;52.296;6.806;2023-01-10T12:45:33;11.03;;;3.43;;
11018;SDS011;5563;52.296;6.806;2023-01-10T12:48:19;17.97;;;4.23;;
11018;SDS011;5563;52.296;6.806;2023-01-10T12:51:00;19.10;;;3.97;;
11018;SDS011;5563;52.296;6.806;2023-01-10T12:53:39;18.63;;;4.70;;
11018;SDS011;5563;52.296;6.806;2023-01-10T12:56:17;14.13;;;4.47;;
11018;SDS011;5563;52.296;6.806;2023-01-10T12:58:49;14.07;;;3.87;;
11018;SDS011;5563;52.296;6.806;2023-01-10T13:01:30;17.13;;;4.30;;
11018;SDS011;5563;52.296;6.806;2023-01-10T13:04:02;16.97;;;4.37;;
11018;SDS011;5563;52.296;6.806;2023-01-10T13:06:50;15.97;;;4.60;;
11018;SDS011;5563;52.296;6.806;2023-01-10T13:09:19;11.00;;;3.63;;
11018;SDS011;5563;52.296;6.806;2023-01-10T13:14:56;14.37;;;3.90;;
11018;SDS011;5563;52.296;6.806;2023-01-10T13:17:41;13.53;;;3.33;;
11018;SDS011;5563;52.296;6.806;2023-01-10T13:22:56;12.67;;;4.27;;
11018;SDS011;5563;52.296;6.806;2023-01-10T13:25:33;11.27;;;3.53;;
11018;SDS011;5563;52.296;6.806;2023-01-10T13:28:19;18.00;;;4.07;;
11018;SDS011;5563;52.296;6.806;2023-01-10T13:31:01;13.37;;;3.83;;
11018;SDS011;5563;52.296;6.806;2023-01-10T13:33:33;13.32;;;3.45;;
11018;SDS011;5563;52.296;6.806;2023-01-10T13:36:17;13.93;;;3.47;;
11018;SDS011;5563;52.296;6.806;2023-01-10T13:39:01;14.83;;;3.70;;
11018;SDS011;5563;52.296;6.806;2023-01-10T14:00:49;12.63;;;3.50;;
11018;SDS011;5563;52.296;6.806;2023-01-10T14:03:54;11.93;;;3.50;;
11018;SDS011;5563;52.296;6.806;2023-01-10T14:06:33;16.70;;;3.73;;
11018;SDS011;5563;52.296;6.806;2023-01-10T14:14:20;14.57;;;3.53;;
11018;SDS011;5563;52.296;6.806;2023-01-10T14:17:18;12.37;;;3.63;;
11018;SDS011;5563;52.296;6.806;2023-01-10T14:19:55;11.30;;;3.37;;
11018;SDS011;5563;52.296;6.806;2023-01-10T14:22:33;11.38;;;3.35;;
11018;SDS011;5563;52.296;6.806;2023-01-10T14:25:06;7.85;;;3.08;;
11018;SDS011;5563;52.296;6.806;2023-01-10T14:27:51;11.40;;;3.40;;
11018;SDS011;5563;52.296;6.806;2023-01-10T14:33:15;9.38;;;2.92;;
11018;SDS011;5563;52.296;6.806;2023-01-10T14:35:46;13.40;;;3.35;;
11018;SDS011;5563;52.296;6.806;2023-01-10T14:38:25;10.95;;;3.10;;
11018;SDS011;5563;52.296;6.806;2023-01-10T14:41:02;8.90;;;2.85;;
11018;SDS011;5563;52.296;6.806;2023-01-10T14:43:38;13.95;;;3.50;;
11018;SDS011;5563;52.296;6.806;2023-01-10T14:49:01;10.43;;;3.25;;
11018;SDS011;5563;52.296;6.806;2023-01-10T14:51:52;13.20;;;3.63;;
11018;SDS011;5563;52.296;6.806;2023-01-10T14:54:33;9.40;;;2.55;;
11018;SDS011;5563;52.296;6.806;2023-01-10T14:57:20;13.38;;;3.35;;
11018;SDS011;5563;52.296;6.806;2023-01-10T14:59:49;14.43;;;2.97;;
11018;SDS011;5563;52.296;6.806;2023-01-10T15:02:23;9.33;;;3.23;;
11018;SDS011;5563;52.296;6.806;2023-01-10T15:04:56;15.57;;;3.53;;
11018;SDS011;5563;52.296;6.806;2023-01-10T15:07:31;11.77;;;2.73;;
11018;SDS011;5563;52.296;6.806;2023-01-10T15:09:58;11.93;;;3.40;;
11018;SDS011;5563;52.296;6.806;2023-01-10T15:12:35;7.63;;;2.20;;
11018;SDS011;5563;52.296;6.806;2023-01-10T15:15:14;11.13;;;3.93;;
11018;SDS011;5563;52.296;6.806;2023-01-10T15:17:49;12.85;;;3.65;;
11018;SDS011;5563;52.296;6.806;2023-01-10T15:20:17;13.63;;;3.28;;
11018;SDS011;5563;52.296;6.806;2023-01-10T15:22:53;8.88;;;3.05;;
11018;SDS011;5563;52.296;6.806;2023-01-10T15:25:33;9.50;;;2.60;;
11018;SDS011;5563;52.296;6.806;2023-01-10T15:28:16;11.75;;;2.92;;
11018;SDS011;5563;52.296;6.806;2023-01-10T15:30:51;10.80;;;3.15;;
11018;SDS011;5563;52.296;6.806;2023-01-10T15:33:31;12.77;;;2.83;;
11018;SDS011;5563;52.296;6.806;2023-01-10T15:36:11;13.20;;;3.40;;
11018;SDS011;5563;52.296;6.806;2023-01-10T15:38:51;12.20;;;3.10;;
11018;SDS011;5563;52.296;6.806;2023-01-10T15:41:20;14.13;;;2.78;;
11018;SDS011;5563;52.296;6.806;2023-01-10T15:44:09;9.77;;;2.75;;
11018;SDS011;5563;52.296;6.806;2023-01-10T15:47:04;10.82;;;2.60;;
11018;SDS011;5563;52.296;6.806;2023-01-10T15:49:39;10.10;;;4.53;;
11018;SDS011;5563;52.296;6.806;2023-01-10T15:52:19;11.82;;;2.78;;
11018;SDS011;5563;52.296;6.806;2023-01-10T15:54:49;10.27;;;2.80;;
11018;SDS011;5563;52.296;6.806;2023-01-10T15:57:26;14.65;;;3.92;;
11018;SDS011;5563;52.296;6.806;2023-01-10T16:00:05;10.63;;;3.47;;
11018;SDS011;5563;52.296;6.806;2023-01-10T16:02:45;7.68;;;2.42;;
11018;SDS011;5563;52.296;6.806;2023-01-10T16:05:20;9.93;;;2.92;;
11018;SDS011;5563;52.296;6.806;2023-01-10T16:07:48;9.77;;;3.20;;
11018;SDS011;5563;52.296;6.806;2023-01-10T16:10:23;11.57;;;2.30;;
11018;SDS011;5563;52.296;6.806;2023-01-10T16:12:52;6.95;;;1.95;;
11018;SDS011;5563;52.296;6.806;2023-01-10T16:16:00;7.45;;;2.88;;
11018;SDS011;5563;52.296;6.806;2023-01-10T16:18:44;10.63;;;3.47;;
11018;SDS011;5563;52.296;6.806;2023-01-10T16:21:11;11.93;;;3.30;;
11018;SDS011;5563;52.296;6.806;2023-01-10T16:23:47;11.30;;;3.33;;
11018;SDS011;5563;52.296;6.806;2023-01-10T16:26:15;9.50;;;2.75;;
11018;SDS011;5563;52.296;6.806;2023-01-10T16:28:50;8.10;;;2.85;;
11018;SDS011;5563;52.296;6.806;2023-01-10T16:31:23;12.80;;;2.65;;
11018;SDS011;5563;52.296;6.806;2023-01-10T16:33:58;9.73;;;2.83;;
11018;SDS011;5563;52.296;6.806;2023-01-10T16:36:31;9.25;;;3.28;;
11018;SDS011;5563;52.296;6.806;2023-01-10T16:39:06;10.27;;;2.90;;
11018;SDS011;5563;52.296;6.806;2023-01-10T16:41:39;7.78;;;2.58;;
11018;SDS011;5563;52.296;6.806;2023-01-10T16:44:31;9.02;;;3.28;;
11018;SDS011;5563;52.296;6.806;2023-01-10T16:46:59;14.90;;;2.85;;
11018;SDS011;5563;52.296;6.806;2023-01-10T16:49:33;6.88;;;2.50;;
11018;SDS011;5563;52.296;6.806;2023-01-10T16:52:00;5.38;;;1.98;;
11018;SDS011;5563;52.296;6.806;2023-01-10T16:54:28;6.97;;;2.53;;
11018;SDS011;5563;52.296;6.806;2023-01-10T16:57:02;8.35;;;2.40;;
11018;SDS011;5563;52.296;6.806;2023-01-10T16:59:29;10.38;;;2.67;;
11018;SDS011;5563;52.296;6.806;2023-01-10T17:02:08;8.65;;;2.15;;
11018;SDS011;5563;52.296;6.806;2023-01-10T17:04:42;6.72;;;2.15;;
11018;SDS011;5563;52.296;6.806;2023-01-10T17:07:14;8.02;;;2.13;;
11018;SDS011;5563;52.296;6.806;2023-01-10T17:09:41;8.03;;;2.83;;
11018;SDS011;5563;52.296;6.806;2023-01-10T17:12:15;6.23;;;2.30;;
11018;SDS011;5563;52.296;6.806;2023-01-10T17:14:51;7.90;;;2.27;;
11018;SDS011;5563;52.296;6.806;2023-01-10T17:17:24;9.77;;;3.07;;
11018;SDS011;5563;52.296;6.806;2023-01-10T17:19:58;5.80;;;2.13;;
11018;SDS011;5563;52.296;6.806;2023-01-10T17:22:31;8.07;;;2.50;;